24h
KLIENDITUGI:
Saartelennuliinid: +372 58856336 (24/7)
Estairi piletikassa lennujaamas:
+372 6058887; +372 55603687

25.04.2018 hommikune Transaviabaltika lend KTB670 kell 07:00 (kohalik aeg) Tallinn - Kärdla väljalend ja KTB671 kell 07:45 Kärdla – Tallinn väljalend hilineb 3,5 tundi. KTB670 TLL-KDL uus väljalennu aeg on kell 10:30 (kohalik aeg) ja KTB671 KDL – TLL uus väljalennu aeg on kell 11:15 (kohalik aeg). Lennu hilinemise põhjustab udu Kärdla lennuväljal.

 

EEKA Kärdla lennuväli
FCEO32 EETN 250300 
TAF EEKA 250300Z 2504/2510 25010KT 3000 RADZ BKN003 BKN010 PROB40 
    TEMPO 2504/2507 1200 DZ BR BECMG 2507/2509 9999 NSW SCT005 BKN015= 

SPECI EEKA 250330Z 21006KT 1400 BR OVC002 06/05 Q0996=

Kuupäev: 
25/04/2018